Terminal Aerodrome Forecast
Issued by NWS Shreveport, LA

Home | Current Version | Previous Version | Text Only | Print | Product List | Glossary On
Versions: 1 2 3 4 5 6 7 8 9 10 11 12 13 14 15
236
FTUS44 KSHV 291347 AAA
TAFGGG
TAF AMD
KGGG 291347Z 2914/3012 13008KT P6SM VCTS SCT050 OVC100CB
      TEMPO 2914/2915 5SM -TSRA BR OVC025CB
     FM291500 17012G20KT P6SM BKN100
     FM292200 19015G25KT P6SM VCTS BKN040CB
     FM300400 20010KT P6SM SCT045 BKN250
     FM300600 24006KT P6SM BKN250=

USA.gov is the U.S. government's official web portal to all federal, state and local government web resources and services.